createdAt,value
2023-05-14T00:00:13.021Z,12.20
2023-05-14T00:02:41.820Z,12.20
2023-05-14T00:05:11.413Z,12.30
2023-05-14T00:07:40.020Z,12.30
2023-05-14T00:10:11.825Z,12.30
2023-05-14T00:12:40.495Z,12.20
2023-05-14T00:15:10.804Z,12.20
2023-05-14T00:17:39.736Z,12.30
2023-05-14T00:20:09.498Z,12.30
2023-05-14T00:22:38.434Z,12.30
2023-05-14T00:25:10.688Z,12.30
2023-05-14T00:27:39.610Z,12.20
2023-05-14T00:30:09.670Z,12.20
2023-05-14T00:32:38.403Z,12.10
2023-05-14T00:35:08.183Z,12.20
2023-05-14T00:37:37.672Z,12.10
2023-05-14T00:40:11.750Z,12.10
2023-05-14T00:42:40.735Z,12.00
2023-05-14T00:45:10.813Z,12.00
2023-05-14T00:47:40.720Z,11.90
2023-05-14T00:50:13.470Z,11.90
2023-05-14T00:52:42.905Z,11.90
2023-05-14T00:55:16.573Z,11.90
2023-05-14T00:57:46.033Z,11.90
2023-05-14T01:00:15.794Z,11.80
2023-05-14T01:02:44.620Z,11.80
2023-05-14T01:05:13.559Z,11.80
2023-05-14T01:07:59.079Z,11.80
2023-05-14T01:10:40.278Z,11.70
2023-05-14T01:13:21.045Z,11.70
2023-05-14T01:15:50.854Z,11.70
2023-05-14T01:18:21.270Z,11.70
2023-05-14T01:20:52.753Z,11.70
2023-05-14T01:23:22.877Z,11.70
2023-05-14T01:25:51.738Z,11.70
2023-05-14T01:28:28.003Z,11.70
2023-05-14T01:31:03.757Z,11.70
2023-05-14T01:33:37.027Z,11.60
2023-05-14T01:36:06.924Z,11.60
2023-05-14T01:38:38.509Z,11.70
2023-05-14T01:41:07.848Z,11.70
2023-05-14T01:43:37.459Z,11.70
2023-05-14T01:46:06.615Z,11.60
2023-05-14T01:48:35.314Z,11.60
2023-05-14T01:51:04.040Z,11.70
2023-05-14T01:53:35.067Z,11.60
2023-05-14T01:56:05.470Z,11.60
2023-05-14T01:58:34.098Z,11.60
2023-05-14T02:01:02.867Z,11.60
2023-05-14T02:03:31.637Z,11.60
2023-05-14T02:06:00.403Z,11.50
2023-05-14T02:08:29.099Z,11.50
2023-05-14T02:10:57.786Z,11.60
2023-05-14T02:13:28.325Z,11.60
2023-05-14T02:15:56.994Z,11.60
2023-05-14T02:18:25.960Z,11.60
2023-05-14T02:20:54.716Z,11.60
2023-05-14T02:23:34.124Z,11.50
2023-05-14T02:26:10.836Z,11.50
2023-05-14T02:28:40.954Z,11.50
2023-05-14T02:31:09.688Z,11.50
2023-05-14T02:33:38.531Z,11.50
2023-05-14T02:36:07.665Z,11.50
2023-05-14T02:38:36.257Z,11.50
2023-05-14T02:41:05.106Z,11.50
2023-05-14T02:43:33.786Z,11.50
2023-05-14T02:46:03.838Z,11.50
2023-05-14T02:48:32.495Z,11.50
2023-05-14T02:51:02.256Z,11.50
2023-05-14T02:53:31.080Z,11.50
2023-05-14T02:55:59.851Z,11.50
2023-05-14T02:58:28.702Z,11.50
2023-05-14T03:00:57.672Z,11.50
2023-05-14T03:03:30.739Z,11.40
2023-05-14T03:05:59.999Z,11.40
2023-05-14T03:08:28.662Z,11.50
2023-05-14T03:10:57.344Z,11.50
2023-05-14T03:13:25.969Z,11.50
2023-05-14T03:15:55.293Z,11.50
2023-05-14T03:18:24.129Z,11.50
2023-05-14T03:20:54.618Z,11.50
2023-05-14T03:23:23.394Z,11.40
2023-05-14T03:25:52.623Z,11.30
2023-05-14T03:28:21.333Z,11.40
2023-05-14T03:30:50.182Z,11.40
2023-05-14T03:33:18.825Z,11.30
2023-05-14T03:35:47.480Z,11.40
2023-05-14T03:38:17.611Z,11.40
2023-05-14T03:40:46.615Z,11.40
2023-05-14T03:43:16.393Z,11.40
2023-05-14T03:45:45.328Z,11.40
2023-05-14T03:48:14.050Z,11.40
2023-05-14T03:50:43.046Z,11.40
2023-05-14T03:53:11.772Z,11.40
2023-05-14T03:55:41.926Z,11.30
2023-05-14T03:58:14.015Z,11.40
2023-05-14T04:00:43.316Z,11.40
2023-05-14T04:03:12.113Z,11.40
2023-05-14T04:05:40.953Z,11.50
2023-05-14T04:08:09.767Z,11.40
2023-05-14T04:10:38.595Z,11.50
2023-05-14T04:13:08.667Z,11.50
2023-05-14T04:15:39.435Z,11.50
2023-05-14T04:18:08.262Z,11.50
2023-05-14T04:20:37.389Z,11.50
2023-05-14T04:23:06.174Z,11.50
2023-05-14T04:25:34.905Z,11.50
2023-05-14T04:28:03.694Z,11.50
2023-05-14T04:30:33.952Z,11.40
2023-05-14T04:33:02.746Z,11.50
2023-05-14T04:35:31.540Z,11.50
2023-05-14T04:38:00.217Z,11.40
2023-05-14T04:40:28.949Z,11.50
2023-05-14T04:42:57.740Z,11.40
2023-05-14T04:45:26.652Z,11.50
2023-05-14T04:47:56.754Z,11.50
2023-05-14T04:50:25.818Z,11.40
2023-05-14T04:52:56.033Z,11.50
2023-05-14T04:55:25.056Z,11.40
2023-05-14T04:57:53.729Z,11.40
2023-05-14T05:00:23.435Z,11.40
2023-05-14T05:02:52.362Z,11.40
2023-05-14T05:05:23.083Z,11.40
2023-05-14T05:07:51.783Z,11.40
2023-05-14T05:10:20.508Z,11.40
2023-05-14T05:12:49.210Z,11.30
2023-05-14T05:15:18.078Z,11.30
2023-05-14T05:17:46.753Z,11.30
2023-05-14T05:20:15.681Z,11.30
2023-05-14T05:22:45.835Z,11.30
2023-05-14T05:25:14.577Z,11.40
2023-05-14T05:27:43.243Z,11.30
2023-05-14T05:30:13.508Z,11.30
2023-05-14T05:32:42.767Z,11.20
2023-05-14T05:35:11.893Z,11.10
2023-05-14T05:38:01.769Z,11.00
2023-05-14T05:40:30.682Z,11.00
2023-05-14T05:42:59.508Z,11.00
2023-05-14T05:45:28.376Z,11.10
2023-05-14T05:47:57.069Z,11.10
2023-05-14T05:50:26.311Z,11.10
2023-05-14T05:52:55.261Z,11.10
2023-05-14T05:55:25.392Z,11.20
2023-05-14T05:57:54.198Z,11.20
2023-05-14T06:00:23.964Z,11.10
2023-05-14T06:02:52.968Z,11.10
2023-05-14T06:05:21.994Z,11.20
2023-05-14T06:07:50.727Z,11.30
2023-05-14T06:10:21.616Z,11.30
2023-05-14T06:12:51.959Z,11.30
2023-05-14T06:15:20.808Z,11.40
2023-05-14T06:17:49.586Z,11.50
2023-05-14T06:20:18.499Z,11.40
2023-05-14T06:22:47.207Z,11.50
2023-05-14T06:25:15.895Z,11.40
2023-05-14T06:27:44.528Z,11.30
2023-05-14T06:30:16.638Z,11.40
2023-05-14T06:32:45.448Z,11.30
2023-05-14T06:35:14.180Z,11.50
2023-05-14T06:37:42.857Z,11.50
2023-05-14T06:40:12.667Z,11.50
2023-05-14T06:42:41.430Z,11.40
2023-05-14T06:45:10.857Z,11.30
2023-05-14T06:47:41.431Z,11.20
2023-05-14T06:50:11.739Z,11.10
2023-05-14T06:52:40.928Z,11.10
2023-05-14T06:55:10.672Z,11.20
2023-05-14T06:57:40.805Z,11.30
2023-05-14T07:00:11.355Z,11.40
2023-05-14T07:02:41.605Z,11.30
2023-05-14T07:05:11.702Z,11.30
2023-05-14T07:07:40.500Z,11.30
2023-05-14T07:10:09.918Z,11.30
2023-05-14T07:12:38.639Z,11.20
2023-05-14T07:15:09.409Z,11.30
2023-05-14T07:17:38.286Z,11.30
2023-05-14T07:20:10.446Z,11.30
2023-05-14T07:22:39.192Z,11.40
2023-05-14T07:25:08.886Z,11.40
2023-05-14T07:27:37.702Z,11.20
2023-05-14T07:30:07.931Z,11.10
2023-05-14T07:32:36.931Z,11.20
2023-05-14T07:35:08.518Z,11.20
2023-05-14T07:37:37.461Z,11.10
2023-05-14T07:40:07.617Z,11.10
2023-05-14T07:42:37.333Z,11.10
2023-05-14T07:45:07.395Z,11.20
2023-05-14T07:47:36.215Z,11.10
2023-05-14T07:50:05.418Z,10.90
2023-05-14T07:52:36.071Z,10.90
2023-05-14T07:55:06.222Z,10.90
2023-05-14T07:57:35.153Z,11.00
2023-05-14T08:00:04.427Z,11.00
2023-05-14T08:02:33.364Z,11.00
2023-05-14T08:05:02.212Z,11.00
2023-05-14T08:07:31.017Z,11.00
2023-05-14T08:10:01.241Z,11.10
2023-05-14T08:12:30.037Z,11.00
2023-05-14T08:15:02.090Z,11.00
2023-05-14T08:17:30.896Z,11.00
2023-05-14T08:19:59.605Z,11.00
2023-05-14T08:22:28.413Z,11.10
2023-05-14T08:24:57.269Z,11.20
2023-05-14T08:27:27.617Z,11.30
2023-05-14T08:29:56.773Z,11.30
2023-05-14T08:32:25.566Z,11.30
2023-05-14T08:34:54.489Z,11.40
2023-05-14T08:37:23.301Z,11.30
2023-05-14T08:39:51.957Z,11.30
2023-05-14T08:42:25.621Z,11.30
2023-05-14T08:45:02.814Z,11.30
2023-05-14T08:47:32.572Z,11.30
2023-05-14T08:50:05.105Z,11.30
2023-05-14T08:52:34.507Z,11.30
2023-05-14T08:55:06.989Z,11.30
2023-05-14T08:57:36.218Z,11.40
2023-05-14T09:00:12.131Z,11.40
2023-05-14T09:02:42.818Z,11.40
2023-05-14T09:05:12.577Z,11.40
2023-05-14T09:07:41.394Z,11.40
2023-05-14T09:10:26.409Z,11.40
2023-05-14T09:12:55.814Z,11.40
2023-05-14T09:15:29.040Z,11.50
2023-05-14T09:17:58.305Z,11.60
2023-05-14T09:20:28.591Z,11.70
2023-05-14T09:22:59.967Z,11.70
2023-05-14T09:25:33.746Z,11.70
2023-05-14T09:28:10.124Z,11.80
2023-05-14T09:30:39.726Z,11.90
2023-05-14T09:33:10.512Z,11.90
2023-05-14T09:35:43.471Z,11.80
2023-05-14T09:38:13.262Z,11.90
2023-05-14T09:40:44.179Z,11.90
2023-05-14T09:43:14.496Z,11.80
2023-05-14T09:45:43.946Z,11.80
2023-05-14T09:48:13.250Z,11.90
2023-05-14T09:50:44.439Z,11.90
2023-05-14T09:53:13.758Z,11.90
2023-05-14T09:55:43.929Z,11.80
2023-05-14T09:58:14.501Z,11.90
2023-05-14T10:00:46.882Z,11.90
2023-05-14T10:03:19.781Z,12.00
2023-05-14T10:05:51.701Z,12.20
2023-05-14T10:08:28.435Z,12.10
2023-05-14T10:11:04.848Z,12.00
2023-05-14T10:13:42.929Z,12.00
2023-05-14T10:16:20.744Z,12.00
2023-05-14T10:18:57.437Z,12.10
2023-05-14T10:21:29.938Z,12.10
2023-05-14T10:23:59.431Z,12.20
2023-05-14T10:29:16.612Z,12.20
2023-05-14T10:31:51.307Z,12.20
2023-05-14T10:34:41.225Z,12.30
2023-05-14T10:37:12.415Z,12.40
2023-05-14T10:39:47.769Z,12.40
2023-05-14T10:42:20.786Z,12.30
2023-05-14T10:44:53.557Z,12.30
2023-05-14T10:47:23.262Z,12.30
2023-05-14T10:49:54.919Z,12.30
2023-05-14T10:52:24.505Z,12.30
2023-05-14T10:54:56.016Z,12.40
2023-05-14T10:57:29.111Z,12.50
2023-05-14T11:00:01.334Z,12.60
2023-05-14T11:02:34.264Z,12.60
2023-05-14T11:05:06.644Z,12.70
2023-05-14T11:07:37.531Z,12.60
2023-05-14T11:10:08.646Z,12.60
2023-05-14T11:12:41.841Z,12.50
2023-05-14T11:15:13.433Z,12.40
2023-05-14T11:17:44.770Z,12.50
2023-05-14T11:20:14.869Z,12.60
2023-05-14T11:22:45.251Z,12.50
2023-05-14T11:25:15.604Z,12.50
2023-05-14T11:27:47.819Z,12.60
2023-05-14T11:30:19.753Z,12.60
2023-05-14T11:32:51.144Z,12.70
2023-05-14T11:35:20.044Z,12.70
2023-05-14T11:37:53.345Z,12.70
2023-05-14T11:40:22.954Z,12.60
2023-05-14T11:42:54.722Z,12.50
2023-05-14T11:45:30.005Z,12.70
2023-05-14T11:47:58.848Z,12.70
2023-05-14T11:50:27.642Z,12.70
2023-05-14T11:52:58.938Z,12.70
2023-05-14T11:55:27.854Z,12.70
2023-05-14T11:57:58.342Z,12.70
2023-05-14T12:00:28.608Z,12.80
2023-05-14T12:02:57.443Z,12.80
2023-05-14T12:05:26.862Z,12.80
2023-05-14T12:07:56.290Z,12.70
2023-05-14T12:10:25.569Z,12.60
2023-05-14T12:12:54.598Z,12.60
2023-05-14T12:15:25.001Z,12.70
2023-05-14T12:17:53.912Z,12.70
2023-05-14T12:20:26.414Z,12.80
2023-05-14T12:22:55.636Z,12.70
2023-05-14T12:25:27.267Z,12.80
2023-05-14T12:27:55.999Z,12.80
2023-05-14T12:30:26.164Z,12.80
2023-05-14T12:32:54.963Z,12.80
2023-05-14T12:35:24.016Z,12.70
2023-05-14T12:37:52.892Z,12.70
2023-05-14T12:40:22.168Z,12.60
2023-05-14T12:42:51.081Z,12.60
2023-05-14T12:45:20.006Z,12.70
2023-05-14T12:47:50.323Z,12.70
2023-05-14T12:50:19.237Z,12.80
2023-05-14T12:52:48.100Z,12.80
2023-05-14T12:55:16.952Z,12.80
2023-05-14T12:57:45.712Z,13.00
2023-05-14T13:00:15.594Z,13.00
2023-05-14T13:02:44.534Z,13.10
2023-05-14T13:05:14.809Z,13.20
2023-05-14T13:07:43.656Z,13.10
2023-05-14T13:10:12.851Z,13.10
2023-05-14T13:12:41.699Z,12.90
2023-05-14T13:15:11.970Z,13.00
2023-05-14T13:17:41.470Z,12.90
2023-05-14T13:20:11.627Z,12.90
2023-05-14T13:22:41.987Z,12.80
2023-05-14T13:25:11.640Z,12.80
2023-05-14T13:27:40.393Z,12.80
2023-05-14T13:30:10.549Z,12.80
2023-05-14T13:32:41.552Z,12.80
2023-05-14T13:35:11.671Z,12.80
2023-05-14T13:37:41.995Z,12.70
2023-05-14T13:40:12.485Z,12.70
2023-05-14T13:42:41.559Z,12.70
2023-05-14T13:45:11.935Z,12.70
2023-05-14T13:47:40.828Z,12.60
2023-05-14T13:50:10.563Z,12.60
2023-05-14T13:52:41.106Z,12.60
2023-05-14T13:55:10.912Z,12.60
2023-05-14T13:57:40.354Z,12.70
2023-05-14T14:00:11.235Z,12.70
2023-05-14T14:02:39.999Z,12.70
2023-05-14T14:05:09.988Z,12.70
2023-05-14T14:07:40.709Z,12.70
2023-05-14T14:10:11.371Z,12.60
2023-05-14T14:12:40.108Z,12.60
2023-05-14T14:15:10.294Z,12.70
2023-05-14T14:17:39.187Z,12.60
2023-05-14T14:20:09.823Z,12.60
2023-05-14T14:22:40.191Z,12.60
2023-05-14T14:25:10.279Z,12.50
2023-05-14T14:27:39.080Z,12.50
2023-05-14T14:30:15.585Z,12.50
2023-05-14T14:32:45.744Z,12.50
2023-05-14T14:35:16.906Z,12.50
2023-05-14T14:37:50.789Z,12.50
2023-05-14T14:40:19.942Z,12.40
2023-05-14T14:42:48.904Z,12.60
2023-05-14T14:45:17.706Z,12.50
2023-05-14T14:47:48.634Z,12.50
2023-05-14T14:50:17.625Z,12.50
2023-05-14T14:52:48.161Z,12.60
2023-05-14T14:55:17.120Z,12.50
2023-05-14T14:57:46.126Z,12.50
2023-05-14T15:00:17.390Z,12.50
2023-05-14T15:02:46.297Z,12.50
2023-05-14T15:05:15.387Z,12.40
2023-05-14T15:07:44.222Z,12.50
2023-05-14T15:10:14.493Z,12.50
2023-05-14T15:12:43.450Z,12.50
2023-05-14T15:15:12.607Z,12.50
2023-05-14T15:17:41.481Z,12.40
2023-05-14T15:20:12.041Z,12.40
2023-05-14T15:22:40.916Z,12.40
2023-05-14T15:25:10.412Z,12.40
2023-05-14T15:27:40.569Z,12.30
2023-05-14T15:30:10.974Z,12.40
2023-05-14T15:32:39.865Z,12.40
2023-05-14T15:35:09.933Z,12.40
2023-05-14T15:37:41.242Z,12.40
2023-05-14T15:40:11.556Z,12.40
2023-05-14T15:42:44.306Z,12.40
2023-05-14T15:45:15.191Z,12.40
2023-05-14T15:47:45.112Z,12.40
2023-05-14T15:50:14.027Z,12.30
2023-05-14T15:52:42.818Z,12.40
2023-05-14T15:55:12.176Z,12.40
2023-05-14T15:57:42.272Z,12.30
2023-05-14T16:00:13.082Z,12.30
2023-05-14T16:02:41.885Z,12.30
2023-05-14T16:05:11.148Z,12.30
2023-05-14T16:07:40.251Z,12.30
2023-05-14T16:10:10.150Z,12.20
2023-05-14T16:12:38.816Z,12.30
2023-05-14T16:15:11.164Z,12.30
2023-05-14T16:17:40.118Z,12.30
2023-05-14T16:20:10.239Z,12.30
2023-05-14T16:22:38.844Z,12.30
2023-05-14T16:25:08.753Z,12.20
2023-05-14T16:27:37.586Z,12.20
2023-05-14T16:30:09.777Z,12.20
2023-05-14T16:32:38.646Z,12.20
2023-05-14T16:35:07.919Z,12.20
2023-05-14T16:37:36.713Z,12.20
2023-05-14T16:40:06.265Z,12.30
2023-05-14T16:42:35.066Z,12.30
2023-05-14T16:45:03.775Z,12.30
2023-05-14T16:47:33.936Z,12.20
2023-05-14T16:50:02.655Z,12.10
2023-05-14T16:52:31.865Z,12.20
2023-05-14T16:55:00.675Z,12.30
2023-05-14T16:58:22.065Z,12.40
2023-05-14T17:01:43.461Z,12.30
2023-05-14T17:05:07.138Z,12.40
2023-05-14T17:08:32.417Z,12.40
2023-05-14T17:11:53.696Z,12.50
2023-05-14T17:15:14.909Z,12.50
2023-05-14T17:18:36.273Z,12.40
2023-05-14T17:21:59.042Z,12.50
2023-05-14T17:25:20.217Z,12.40
2023-05-14T17:28:41.556Z,12.30
2023-05-14T17:32:03.635Z,12.40
2023-05-14T17:35:25.158Z,12.30
2023-05-14T17:38:49.989Z,12.30
2023-05-14T17:42:11.197Z,12.30
2023-05-14T17:45:42.732Z,12.40
2023-05-14T17:49:13.819Z,12.30
2023-05-14T17:52:35.252Z,12.30
2023-05-14T17:55:58.571Z,12.30
2023-05-14T17:59:21.161Z,12.30
2023-05-14T18:02:43.246Z,12.30
2023-05-14T18:06:04.858Z,12.30
2023-05-14T18:09:26.270Z,12.30
2023-05-14T18:12:48.940Z,12.30
2023-05-14T18:16:10.525Z,12.30
2023-05-14T18:19:32.013Z,12.30
2023-05-14T18:22:53.419Z,12.40
2023-05-14T18:26:14.665Z,12.40
2023-05-14T18:29:37.897Z,12.40
2023-05-14T18:33:00.156Z,12.40
2023-05-14T18:36:21.496Z,12.30
2023-05-14T18:39:42.775Z,12.30
2023-05-14T18:43:04.002Z,12.30
2023-05-14T18:46:27.307Z,12.30
2023-05-14T18:49:51.706Z,12.40
2023-05-14T18:53:12.886Z,12.40
2023-05-14T18:56:34.263Z,12.40
2023-05-14T18:59:55.537Z,12.40
2023-05-14T19:03:19.788Z,12.30
2023-05-14T19:06:41.469Z,12.40
2023-05-14T19:10:03.755Z,12.40
2023-05-14T19:13:25.063Z,12.40
2023-05-14T19:16:46.466Z,12.40
2023-05-14T19:20:10.065Z,12.40
2023-05-14T19:23:32.809Z,12.30
2023-05-14T19:26:54.466Z,12.40
2023-05-14T19:30:16.036Z,12.40
2023-05-14T19:33:37.294Z,12.40
2023-05-14T19:37:00.759Z,12.40
2023-05-14T19:40:21.949Z,12.30
2023-05-14T19:43:43.158Z,12.30
2023-05-14T19:47:04.514Z,12.30
2023-05-14T19:50:25.892Z,12.40
2023-05-14T19:53:48.484Z,12.30
2023-05-14T19:57:10.458Z,12.30
2023-05-14T20:00:31.689Z,12.30
2023-05-14T20:03:53.061Z,12.30
2023-05-14T20:07:15.729Z,12.30
2023-05-14T20:10:38.471Z,12.30
2023-05-14T20:13:59.678Z,12.30
2023-05-14T20:17:21.008Z,12.30
2023-05-14T20:20:42.847Z,12.40
2023-05-14T20:24:03.998Z,12.40
2023-05-14T20:27:26.609Z,12.40
2023-05-14T20:30:47.844Z,12.40
2023-05-14T20:34:09.126Z,12.50
2023-05-14T20:37:31.308Z,12.50
2023-05-14T20:40:53.422Z,12.50
2023-05-14T20:44:16.445Z,12.50
2023-05-14T20:47:39.269Z,12.40
2023-05-14T20:51:01.822Z,12.30
2023-05-14T20:54:23.067Z,12.40
2023-05-14T20:57:44.575Z,12.30
2023-05-14T21:01:09.589Z,12.30
2023-05-14T21:04:30.913Z,12.30
2023-05-14T21:07:52.251Z,12.30
2023-05-14T21:11:14.264Z,12.30
2023-05-14T21:14:37.050Z,12.30
2023-05-14T21:18:00.064Z,12.30
2023-05-14T21:21:21.445Z,12.30
2023-05-14T21:24:43.014Z,12.30
2023-05-14T21:28:04.499Z,12.40
2023-05-14T21:31:25.944Z,12.30
2023-05-14T21:34:48.595Z,12.30
2023-05-14T21:38:09.972Z,12.40
2023-05-14T21:41:31.777Z,12.30
2023-05-14T21:44:52.922Z,12.30
2023-05-14T21:48:14.309Z,12.40
2023-05-14T21:51:37.165Z,12.40
2023-05-14T21:54:58.716Z,12.40
2023-05-14T21:58:20.237Z,12.40
2023-05-14T22:01:56.051Z,12.40
2023-05-14T22:05:23.255Z,12.40
2023-05-14T22:08:46.401Z,12.40
2023-05-14T22:12:08.230Z,12.40
2023-05-14T22:15:29.425Z,12.40
2023-05-14T22:18:50.581Z,12.40
2023-05-14T22:22:11.824Z,12.40
2023-05-14T22:25:34.413Z,12.30
2023-05-14T22:28:57.627Z,12.30
2023-05-14T22:32:19.053Z,12.30
2023-05-14T22:35:40.329Z,12.30
2023-05-14T22:39:01.528Z,12.20
2023-05-14T22:42:24.189Z,12.30
2023-05-14T22:45:45.419Z,12.30
2023-05-14T22:49:06.726Z,12.40
2023-05-14T22:52:27.919Z,12.30
2023-05-14T22:55:49.155Z,12.40
2023-05-14T22:59:11.750Z,12.40
2023-05-14T23:02:33.386Z,12.30
2023-05-14T23:05:54.652Z,12.30
2023-05-14T23:09:15.869Z,12.30
2023-05-14T23:12:37.168Z,12.30
2023-05-14T23:16:00.739Z,12.30
2023-05-14T23:19:22.463Z,12.20
2023-05-14T23:22:43.878Z,12.10
2023-05-14T23:26:05.340Z,12.10
2023-05-14T23:29:26.514Z,12.20
2023-05-14T23:32:49.277Z,12.10
2023-05-14T23:36:10.971Z,12.20
2023-05-14T23:39:32.887Z,12.20
2023-05-14T23:42:54.321Z,12.20
2023-05-14T23:46:15.657Z,12.20
2023-05-14T23:49:39.502Z,12.20
2023-05-14T23:53:01.062Z,12.20
2023-05-14T23:56:22.492Z,12.30
2023-05-14T23:59:43.973Z,12.20
